Airfield :
LOGIN :

Register | Disclaimer

   EN    FR    IT 

 










Legend :    VFR   Marginal VFR   IFR   Intensive IFR   Very Intensive IFR
Visi :
Ceiling :
>= 8 km
>= 3000ft
5 to 8 km
1000 to 3000 ft
1500m to 5 km
500 to 1000 ft
800 to 1500m
200 to 500 ft
< 800m
< 200 ft
Symbols :   Thunderstorms  Fog  Heavy snow  Heavy precipitations  Wind > 20 kt
SIGMETs :     Misc.  Thunderstorms  Icing  Turbulence  Mountain Waves  Volcanic Ashes






- Airport Elevation : 1036 ft
- IATA code : ERF


EDDE - Erfurt

CURRENT METAR :
  • 250850Z AUTO 05005KT 320V110 CAVOK 22/14 Q1017 NOSIG

EXPIRED METARs :
  • 250820Z AUTO 04005KT 330V120 CAVOK 21/14 Q1018 NOSIG
  • 250750Z AUTO 02005KT 300V060 CAVOK 20/14 Q1018 NOSIG
  • 250720Z AUTO 02004KT 320V090 CAVOK 19/14 Q1018 NOSIG
  • 250650Z AUTO 01004KT 340V060 CAVOK 18/13 Q1018 NOSIG
  • 250620Z AUTO 02004KT 350V050 CAVOK 18/14 Q1018 NOSIG
  • 250550Z AUTO VRB02KT CAVOK 17/14 Q1018 NOSIG
  • 250520Z AUTO VRB02KT CAVOK 16/13 Q1018 NOSIG
  • 250450Z AUTO 19002KT CAVOK 15/12 Q1018 NOSIG
  • 250420Z AUTO 19003KT CAVOK 15/12 Q1018 NOSIG

TAF TAF EDDE
Valid from the 25 at 06:00 until the 26 at 06:00 UTC


250500Z 2506/2606 VRB03KT CAVOK
BECMG 2506/2509 07009KT
BECMG 2517/2520 06004KT



MET'MAP, your aeronautical weather chart ! - Copyright ORBIFLY December 2007 - Disclaimer

ORBIFLY MET'MAP TEAM :

Programming & Development : Alexandra Zaïnal
Original concept : Baudouin d'Aumeries
Technical & hardware support : Manuel Goepfert
Assistance : Marc-Olivier Méhu




SOURCES & CREDITS :

   NOAA